sensor_id;sensor_type;location;lat;lon;timestamp;P1;durP1;ratioP1;P2;durP2;ratioP2
11255;SDS011;5685;52.384;13.420;2023-03-01T00:02:26;68.90;;;37.00;;
11255;SDS011;5685;52.384;13.420;2023-03-01T00:05:28;69.10;;;37.10;;
11255;SDS011;5685;52.384;13.420;2023-03-01T00:08:31;68.80;;;37.10;;
11255;SDS011;5685;52.384;13.420;2023-03-01T00:11:34;69.00;;;37.00;;
11255;SDS011;5685;52.384;13.420;2023-03-01T00:14:38;68.43;;;36.77;;
11255;SDS011;5685;52.384;13.420;2023-03-01T00:17:40;68.03;;;36.60;;
11255;SDS011;5685;52.384;13.420;2023-03-01T00:20:48;68.67;;;37.03;;
11255;SDS011;5685;52.384;13.420;2023-03-01T00:23:52;69.03;;;37.10;;
11255;SDS011;5685;52.384;13.420;2023-03-01T00:26:55;68.67;;;36.80;;
11255;SDS011;5685;52.384;13.420;2023-03-01T00:29:59;68.57;;;36.77;;
11255;SDS011;5685;52.384;13.420;2023-03-01T00:33:02;69.07;;;37.13;;
11255;SDS011;5685;52.384;13.420;2023-03-01T00:36:06;68.60;;;36.83;;
11255;SDS011;5685;52.384;13.420;2023-03-01T00:39:10;69.00;;;37.10;;
11255;SDS011;5685;52.384;13.420;2023-03-01T00:42:14;68.50;;;36.90;;
11255;SDS011;5685;52.384;13.420;2023-03-01T00:45:18;69.00;;;37.10;;
11255;SDS011;5685;52.384;13.420;2023-03-01T00:48:23;69.57;;;37.33;;
11255;SDS011;5685;52.384;13.420;2023-03-01T00:51:26;68.73;;;36.97;;
11255;SDS011;5685;52.384;13.420;2023-03-01T00:54:29;68.73;;;36.90;;
11255;SDS011;5685;52.384;13.420;2023-03-01T00:57:32;69.00;;;37.07;;
11255;SDS011;5685;52.384;13.420;2023-03-01T01:00:36;69.20;;;37.23;;
11255;SDS011;5685;52.384;13.420;2023-03-01T01:03:39;69.07;;;37.10;;
11255;SDS011;5685;52.384;13.420;2023-03-01T01:06:42;68.97;;;37.07;;
11255;SDS011;5685;52.384;13.420;2023-03-01T01:09:45;68.63;;;37.00;;
11255;SDS011;5685;52.384;13.420;2023-03-01T01:12:48;69.03;;;37.10;;
11255;SDS011;5685;52.384;13.420;2023-03-01T01:15:52;68.53;;;36.87;;
11255;SDS011;5685;52.384;13.420;2023-03-01T01:18:55;68.63;;;36.77;;
11255;SDS011;5685;52.384;13.420;2023-03-01T01:21:58;68.63;;;37.00;;
11255;SDS011;5685;52.384;13.420;2023-03-01T01:25:00;68.30;;;36.67;;
11255;SDS011;5685;52.384;13.420;2023-03-01T01:28:03;69.27;;;37.10;;
11255;SDS011;5685;52.384;13.420;2023-03-01T01:31:07;68.30;;;36.70;;
11255;SDS011;5685;52.384;13.420;2023-03-01T01:34:12;68.73;;;36.83;;
11255;SDS011;5685;52.384;13.420;2023-03-01T01:37:16;68.93;;;36.87;;
11255;SDS011;5685;52.384;13.420;2023-03-01T01:40:19;69.03;;;37.10;;
11255;SDS011;5685;52.384;13.420;2023-03-01T01:43:22;68.97;;;36.90;;
11255;SDS011;5685;52.384;13.420;2023-03-01T01:46:28;69.63;;;37.30;;
11255;SDS011;5685;52.384;13.420;2023-03-01T01:49:33;68.87;;;37.00;;
11255;SDS011;5685;52.384;13.420;2023-03-01T01:52:38;68.90;;;36.97;;
11255;SDS011;5685;52.384;13.420;2023-03-01T01:55:43;68.23;;;36.63;;
11255;SDS011;5685;52.384;13.420;2023-03-01T01:58:48;68.20;;;36.67;;
11255;SDS011;5685;52.384;13.420;2023-03-01T02:01:53;69.00;;;37.00;;
11255;SDS011;5685;52.384;13.420;2023-03-01T02:04:58;69.10;;;37.07;;
11255;SDS011;5685;52.384;13.420;2023-03-01T02:08:05;69.40;;;37.20;;
11255;SDS011;5685;52.384;13.420;2023-03-01T02:11:08;68.73;;;36.93;;
11255;SDS011;5685;52.384;13.420;2023-03-01T02:14:14;68.87;;;36.80;;
11255;SDS011;5685;52.384;13.420;2023-03-01T02:17:18;68.90;;;36.90;;
11255;SDS011;5685;52.384;13.420;2023-03-01T02:20:22;68.83;;;36.93;;
11255;SDS011;5685;52.384;13.420;2023-03-01T02:23:30;68.47;;;36.70;;
11255;SDS011;5685;52.384;13.420;2023-03-01T02:26:35;68.90;;;36.90;;
11255;SDS011;5685;52.384;13.420;2023-03-01T02:29:43;68.80;;;36.80;;
11255;SDS011;5685;52.384;13.420;2023-03-01T02:32:46;68.90;;;36.97;;
11255;SDS011;5685;52.384;13.420;2023-03-01T02:35:49;68.80;;;36.83;;
11255;SDS011;5685;52.384;13.420;2023-03-01T02:38:53;68.67;;;36.60;;
11255;SDS011;5685;52.384;13.420;2023-03-01T02:41:58;68.77;;;36.70;;
11255;SDS011;5685;52.384;13.420;2023-03-01T02:45:03;68.63;;;36.67;;
11255;SDS011;5685;52.384;13.420;2023-03-01T02:48:06;68.57;;;36.63;;
11255;SDS011;5685;52.384;13.420;2023-03-01T02:51:11;68.87;;;36.83;;
11255;SDS011;5685;52.384;13.420;2023-03-01T02:54:24;68.73;;;36.77;;
11255;SDS011;5685;52.384;13.420;2023-03-01T02:57:29;69.00;;;36.90;;
11255;SDS011;5685;52.384;13.420;2023-03-01T03:00:35;68.33;;;36.60;;
11255;SDS011;5685;52.384;13.420;2023-03-01T03:03:40;68.67;;;36.73;;
11255;SDS011;5685;52.384;13.420;2023-03-01T03:06:43;68.60;;;36.67;;
11255;SDS011;5685;52.384;13.420;2023-03-01T03:09:45;68.53;;;36.60;;
11255;SDS011;5685;52.384;13.420;2023-03-01T03:12:49;68.67;;;36.73;;
11255;SDS011;5685;52.384;13.420;2023-03-01T03:15:53;68.57;;;36.60;;
11255;SDS011;5685;52.384;13.420;2023-03-01T03:18:57;68.70;;;36.70;;
11255;SDS011;5685;52.384;13.420;2023-03-01T03:22:05;68.33;;;36.53;;
11255;SDS011;5685;52.384;13.420;2023-03-01T03:25:09;68.47;;;36.53;;
11255;SDS011;5685;52.384;13.420;2023-03-01T03:28:11;68.57;;;36.67;;
11255;SDS011;5685;52.384;13.420;2023-03-01T03:31:17;69.10;;;36.93;;
11255;SDS011;5685;52.384;13.420;2023-03-01T03:34:19;68.53;;;36.53;;
11255;SDS011;5685;52.384;13.420;2023-03-01T03:37:22;68.43;;;36.50;;
11255;SDS011;5685;52.384;13.420;2023-03-01T03:40:43;68.03;;;36.30;;
11255;SDS011;5685;52.384;13.420;2023-03-01T03:43:46;68.73;;;36.63;;
11255;SDS011;5685;52.384;13.420;2023-03-01T03:46:51;68.10;;;36.40;;
11255;SDS011;5685;52.384;13.420;2023-03-01T03:49:53;68.37;;;36.47;;
11255;SDS011;5685;52.384;13.420;2023-03-01T03:52:56;68.47;;;36.57;;
11255;SDS011;5685;52.384;13.420;2023-03-01T03:55:58;67.97;;;36.30;;
11255;SDS011;5685;52.384;13.420;2023-03-01T03:59:01;68.87;;;36.77;;
11255;SDS011;5685;52.384;13.420;2023-03-01T04:02:05;68.53;;;36.50;;
11255;SDS011;5685;52.384;13.420;2023-03-01T04:05:09;68.80;;;36.70;;
11255;SDS011;5685;52.384;13.420;2023-03-01T04:08:14;68.80;;;36.73;;
11255;SDS011;5685;52.384;13.420;2023-03-01T04:11:17;68.70;;;36.60;;
11255;SDS011;5685;52.384;13.420;2023-03-01T04:14:28;68.53;;;36.60;;
11255;SDS011;5685;52.384;13.420;2023-03-01T04:17:32;68.83;;;36.60;;
11255;SDS011;5685;52.384;13.420;2023-03-01T04:20:35;68.47;;;36.50;;
11255;SDS011;5685;52.384;13.420;2023-03-01T04:23:39;68.77;;;36.63;;
11255;SDS011;5685;52.384;13.420;2023-03-01T04:26:42;68.77;;;36.63;;
11255;SDS011;5685;52.384;13.420;2023-03-01T04:29:44;68.27;;;36.37;;
11255;SDS011;5685;52.384;13.420;2023-03-01T04:32:48;68.70;;;36.67;;
11255;SDS011;5685;52.384;13.420;2023-03-01T04:35:51;68.63;;;36.57;;
11255;SDS011;5685;52.384;13.420;2023-03-01T04:38:54;68.90;;;36.73;;
11255;SDS011;5685;52.384;13.420;2023-03-01T04:41:57;68.73;;;36.57;;
11255;SDS011;5685;52.384;13.420;2023-03-01T04:44:59;68.53;;;36.50;;
11255;SDS011;5685;52.384;13.420;2023-03-01T04:48:04;68.43;;;36.40;;
11255;SDS011;5685;52.384;13.420;2023-03-01T04:51:06;68.73;;;36.57;;
11255;SDS011;5685;52.384;13.420;2023-03-01T04:54:09;68.53;;;36.47;;
11255;SDS011;5685;52.384;13.420;2023-03-01T04:57:12;68.60;;;36.43;;
11255;SDS011;5685;52.384;13.420;2023-03-01T05:00:15;68.10;;;36.17;;
11255;SDS011;5685;52.384;13.420;2023-03-01T05:03:25;68.37;;;36.40;;
11255;SDS011;5685;52.384;13.420;2023-03-01T05:06:28;68.53;;;36.40;;
11255;SDS011;5685;52.384;13.420;2023-03-01T05:09:31;68.50;;;36.43;;
11255;SDS011;5685;52.384;13.420;2023-03-01T05:12:34;68.83;;;36.60;;
11255;SDS011;5685;52.384;13.420;2023-03-01T05:15:37;68.67;;;36.57;;
11255;SDS011;5685;52.384;13.420;2023-03-01T05:18:41;68.43;;;36.33;;
11255;SDS011;5685;52.384;13.420;2023-03-01T05:21:44;68.50;;;36.37;;
11255;SDS011;5685;52.384;13.420;2023-03-01T05:25:05;68.80;;;36.47;;
11255;SDS011;5685;52.384;13.420;2023-03-01T05:28:09;68.80;;;36.60;;
11255;SDS011;5685;52.384;13.420;2023-03-01T05:31:12;68.80;;;36.53;;
11255;SDS011;5685;52.384;13.420;2023-03-01T05:34:17;68.83;;;36.53;;
11255;SDS011;5685;52.384;13.420;2023-03-01T05:37:22;68.60;;;36.43;;
11255;SDS011;5685;52.384;13.420;2023-03-01T05:40:25;68.60;;;36.37;;
11255;SDS011;5685;52.384;13.420;2023-03-01T05:43:29;68.53;;;36.43;;
11255;SDS011;5685;52.384;13.420;2023-03-01T05:46:33;68.60;;;36.47;;
11255;SDS011;5685;52.384;13.420;2023-03-01T05:49:37;68.63;;;36.40;;
11255;SDS011;5685;52.384;13.420;2023-03-01T05:52:40;69.03;;;36.63;;
11255;SDS011;5685;52.384;13.420;2023-03-01T05:55:43;68.37;;;36.33;;
11255;SDS011;5685;52.384;13.420;2023-03-01T05:58:47;68.70;;;36.47;;
11255;SDS011;5685;52.384;13.420;2023-03-01T06:01:50;68.63;;;36.40;;
11255;SDS011;5685;52.384;13.420;2023-03-01T06:04:55;68.77;;;36.60;;
11255;SDS011;5685;52.384;13.420;2023-03-01T06:07:58;68.87;;;36.60;;
11255;SDS011;5685;52.384;13.420;2023-03-01T06:11:01;68.50;;;36.47;;
11255;SDS011;5685;52.384;13.420;2023-03-01T06:14:05;68.57;;;36.37;;
11255;SDS011;5685;52.384;13.420;2023-03-01T06:17:10;68.23;;;36.33;;
11255;SDS011;5685;52.384;13.420;2023-03-01T06:20:15;68.70;;;36.50;;
11255;SDS011;5685;52.384;13.420;2023-03-01T06:23:19;68.60;;;36.40;;
11255;SDS011;5685;52.384;13.420;2023-03-01T06:26:22;68.73;;;36.50;;
11255;SDS011;5685;52.384;13.420;2023-03-01T06:29:24;68.87;;;36.60;;
11255;SDS011;5685;52.384;13.420;2023-03-01T06:32:27;68.57;;;36.43;;
11255;SDS011;5685;52.384;13.420;2023-03-01T06:35:31;67.97;;;36.07;;
11255;SDS011;5685;52.384;13.420;2023-03-01T06:38:34;68.47;;;36.40;;
11255;SDS011;5685;52.384;13.420;2023-03-01T06:41:37;68.43;;;36.40;;
11255;SDS011;5685;52.384;13.420;2023-03-01T06:44:39;68.50;;;36.40;;
11255;SDS011;5685;52.384;13.420;2023-03-01T06:47:42;68.73;;;36.63;;
11255;SDS011;5685;52.384;13.420;2023-03-01T06:50:47;68.47;;;36.40;;
11255;SDS011;5685;52.384;13.420;2023-03-01T06:53:49;68.47;;;36.33;;
11255;SDS011;5685;52.384;13.420;2023-03-01T06:56:52;68.30;;;36.10;;
11255;SDS011;5685;52.384;13.420;2023-03-01T06:59:54;68.40;;;36.37;;
11255;SDS011;5685;52.384;13.420;2023-03-01T07:02:58;68.40;;;36.23;;
11255;SDS011;5685;52.384;13.420;2023-03-01T07:06:03;67.97;;;36.07;;
11255;SDS011;5685;52.384;13.420;2023-03-01T07:09:06;68.47;;;36.30;;
11255;SDS011;5685;52.384;13.420;2023-03-01T07:12:09;68.33;;;36.20;;
11255;SDS011;5685;52.384;13.420;2023-03-01T07:15:11;68.20;;;36.10;;
11255;SDS011;5685;52.384;13.420;2023-03-01T07:18:15;67.83;;;36.03;;
11255;SDS011;5685;52.384;13.420;2023-03-01T07:21:19;68.50;;;36.27;;
11255;SDS011;5685;52.384;13.420;2023-03-01T07:24:22;68.60;;;36.50;;
11255;SDS011;5685;52.384;13.420;2023-03-01T07:27:24;69.17;;;36.60;;
11255;SDS011;5685;52.384;13.420;2023-03-01T07:30:27;68.07;;;35.97;;
11255;SDS011;5685;52.384;13.420;2023-03-01T07:33:30;68.43;;;36.20;;
11255;SDS011;5685;52.384;13.420;2023-03-01T07:36:34;68.50;;;36.23;;
11255;SDS011;5685;52.384;13.420;2023-03-01T07:39:36;68.73;;;36.40;;
11255;SDS011;5685;52.384;13.420;2023-03-01T07:42:39;67.90;;;36.00;;
11255;SDS011;5685;52.384;13.420;2023-03-01T07:45:42;68.63;;;36.30;;
11255;SDS011;5685;52.384;13.420;2023-03-01T07:48:45;68.57;;;36.17;;
11255;SDS011;5685;52.384;13.420;2023-03-01T07:51:49;68.97;;;36.47;;
11255;SDS011;5685;52.384;13.420;2023-03-01T07:54:51;69.30;;;36.47;;
11255;SDS011;5685;52.384;13.420;2023-03-01T07:57:54;68.37;;;36.17;;
11255;SDS011;5685;52.384;13.420;2023-03-01T08:01:00;68.83;;;36.33;;
11255;SDS011;5685;52.384;13.420;2023-03-01T08:04:03;68.97;;;36.40;;
11255;SDS011;5685;52.384;13.420;2023-03-01T08:07:08;68.73;;;36.30;;
11255;SDS011;5685;52.384;13.420;2023-03-01T08:10:11;68.93;;;36.37;;
11255;SDS011;5685;52.384;13.420;2023-03-01T08:13:14;68.53;;;36.20;;
11255;SDS011;5685;52.384;13.420;2023-03-01T08:16:22;68.93;;;36.33;;
11255;SDS011;5685;52.384;13.420;2023-03-01T08:19:24;68.77;;;36.37;;
11255;SDS011;5685;52.384;13.420;2023-03-01T08:22:29;68.97;;;36.40;;
11255;SDS011;5685;52.384;13.420;2023-03-01T08:25:32;69.13;;;36.50;;
11255;SDS011;5685;52.384;13.420;2023-03-01T08:28:35;68.93;;;36.27;;
11255;SDS011;5685;52.384;13.420;2023-03-01T08:31:38;69.17;;;36.40;;
11255;SDS011;5685;52.384;13.420;2023-03-01T08:34:41;68.67;;;36.30;;
11255;SDS011;5685;52.384;13.420;2023-03-01T08:37:45;68.80;;;36.23;;
11255;SDS011;5685;52.384;13.420;2023-03-01T08:40:48;69.10;;;36.33;;
11255;SDS011;5685;52.384;13.420;2023-03-01T08:43:51;68.63;;;36.23;;
11255;SDS011;5685;52.384;13.420;2023-03-01T08:46:58;68.97;;;36.30;;
11255;SDS011;5685;52.384;13.420;2023-03-01T08:50:02;68.70;;;36.20;;
11255;SDS011;5685;52.384;13.420;2023-03-01T08:53:07;68.87;;;36.37;;
11255;SDS011;5685;52.384;13.420;2023-03-01T08:56:10;68.43;;;36.17;;
11255;SDS011;5685;52.384;13.420;2023-03-01T08:59:13;68.73;;;36.23;;
11255;SDS011;5685;52.384;13.420;2023-03-01T09:02:17;69.03;;;36.33;;
11255;SDS011;5685;52.384;13.420;2023-03-01T09:05:20;69.00;;;36.37;;
11255;SDS011;5685;52.384;13.420;2023-03-01T09:08:24;68.60;;;36.27;;
11255;SDS011;5685;52.384;13.420;2023-03-01T09:11:27;69.10;;;36.33;;
11255;SDS011;5685;52.384;13.420;2023-03-01T09:14:30;68.30;;;36.07;;
11255;SDS011;5685;52.384;13.420;2023-03-01T09:17:33;68.90;;;36.27;;
11255;SDS011;5685;52.384;13.420;2023-03-01T09:20:35;68.80;;;36.23;;
11255;SDS011;5685;52.384;13.420;2023-03-01T09:23:41;69.30;;;36.60;;
11255;SDS011;5685;52.384;13.420;2023-03-01T09:26:44;68.83;;;36.30;;
11255;SDS011;5685;52.384;13.420;2023-03-01T09:29:47;69.13;;;36.47;;
11255;SDS011;5685;52.384;13.420;2023-03-01T09:32:50;69.00;;;36.40;;
11255;SDS011;5685;52.384;13.420;2023-03-01T09:35:55;69.07;;;36.30;;
11255;SDS011;5685;52.384;13.420;2023-03-01T09:39:00;68.77;;;36.20;;
11255;SDS011;5685;52.384;13.420;2023-03-01T09:42:04;69.07;;;36.30;;
11255;SDS011;5685;52.384;13.420;2023-03-01T09:45:10;68.83;;;36.30;;
11255;SDS011;5685;52.384;13.420;2023-03-01T09:48:17;69.07;;;36.37;;
11255;SDS011;5685;52.384;13.420;2023-03-01T09:51:24;68.53;;;36.00;;
11255;SDS011;5685;52.384;13.420;2023-03-01T09:54:32;68.53;;;36.10;;
11255;SDS011;5685;52.384;13.420;2023-03-01T09:57:36;69.17;;;36.40;;
11255;SDS011;5685;52.384;13.420;2023-03-01T10:00:41;69.07;;;36.40;;
11255;SDS011;5685;52.384;13.420;2023-03-01T10:03:50;68.70;;;36.20;;
11255;SDS011;5685;52.384;13.420;2023-03-01T10:07:05;68.53;;;36.10;;
11255;SDS011;5685;52.384;13.420;2023-03-01T10:10:23;68.87;;;36.17;;
11255;SDS011;5685;52.384;13.420;2023-03-01T10:13:33;69.23;;;36.47;;
11255;SDS011;5685;52.384;13.420;2023-03-01T10:16:43;68.87;;;36.27;;
11255;SDS011;5685;52.384;13.420;2023-03-01T10:19:49;69.10;;;36.47;;
11255;SDS011;5685;52.384;13.420;2023-03-01T10:22:52;69.07;;;36.47;;
11255;SDS011;5685;52.384;13.420;2023-03-01T10:26:09;68.80;;;36.30;;
11255;SDS011;5685;52.384;13.420;2023-03-01T10:29:18;68.77;;;36.20;;
11255;SDS011;5685;52.384;13.420;2023-03-01T10:32:24;68.70;;;36.13;;
11255;SDS011;5685;52.384;13.420;2023-03-01T10:35:28;68.77;;;36.20;;
11255;SDS011;5685;52.384;13.420;2023-03-01T10:38:46;68.97;;;36.27;;
11255;SDS011;5685;52.384;13.420;2023-03-01T10:41:57;68.80;;;36.27;;
11255;SDS011;5685;52.384;13.420;2023-03-01T10:45:14;69.20;;;36.57;;
11255;SDS011;5685;52.384;13.420;2023-03-01T10:48:19;69.00;;;36.33;;
11255;SDS011;5685;52.384;13.420;2023-03-01T10:51:24;68.33;;;36.00;;
11255;SDS011;5685;52.384;13.420;2023-03-01T10:54:27;68.37;;;36.07;;
11255;SDS011;5685;52.384;13.420;2023-03-01T10:57:35;69.27;;;36.47;;
11255;SDS011;5685;52.384;13.420;2023-03-01T11:00:47;68.93;;;36.40;;
11255;SDS011;5685;52.384;13.420;2023-03-01T11:04:03;68.80;;;36.27;;
11255;SDS011;5685;52.384;13.420;2023-03-01T11:07:11;68.63;;;36.20;;
11255;SDS011;5685;52.384;13.420;2023-03-01T11:10:16;68.77;;;36.47;;
11255;SDS011;5685;52.384;13.420;2023-03-01T11:13:21;68.50;;;36.27;;
11255;SDS011;5685;52.384;13.420;2023-03-01T11:16:26;68.53;;;36.30;;
11255;SDS011;5685;52.384;13.420;2023-03-01T11:19:35;68.50;;;36.30;;
11255;SDS011;5685;52.384;13.420;2023-03-01T11:22:39;68.57;;;36.30;;
11255;SDS011;5685;52.384;13.420;2023-03-01T11:25:48;69.07;;;36.60;;
11255;SDS011;5685;52.384;13.420;2023-03-01T11:28:56;68.53;;;36.27;;
11255;SDS011;5685;52.384;13.420;2023-03-01T11:32:05;68.67;;;36.47;;
11255;SDS011;5685;52.384;13.420;2023-03-01T11:35:12;68.33;;;36.30;;
11255;SDS011;5685;52.384;13.420;2023-03-01T11:38:21;68.50;;;36.27;;
11255;SDS011;5685;52.384;13.420;2023-03-01T11:41:25;68.73;;;36.50;;
11255;SDS011;5685;52.384;13.420;2023-03-01T11:44:31;68.70;;;36.47;;
11255;SDS011;5685;52.384;13.420;2023-03-01T11:47:41;68.80;;;36.50;;
11255;SDS011;5685;52.384;13.420;2023-03-01T11:50:49;68.90;;;36.50;;
11255;SDS011;5685;52.384;13.420;2023-03-01T11:53:58;68.70;;;36.50;;
11255;SDS011;5685;52.384;13.420;2023-03-01T11:57:08;68.87;;;36.53;;
11255;SDS011;5685;52.384;13.420;2023-03-01T12:00:21;68.97;;;36.50;;
11255;SDS011;5685;52.384;13.420;2023-03-01T12:03:38;68.57;;;36.40;;
11255;SDS011;5685;52.384;13.420;2023-03-01T12:06:50;68.97;;;36.60;;
11255;SDS011;5685;52.384;13.420;2023-03-01T12:10:01;68.77;;;36.60;;
11255;SDS011;5685;52.384;13.420;2023-03-01T12:13:23;68.53;;;36.37;;
11255;SDS011;5685;52.384;13.420;2023-03-01T12:16:40;68.43;;;36.37;;
11255;SDS011;5685;52.384;13.420;2023-03-01T12:19:54;68.87;;;36.70;;
11255;SDS011;5685;52.384;13.420;2023-03-01T12:23:19;68.67;;;36.47;;
11255;SDS011;5685;52.384;13.420;2023-03-01T12:26:28;68.93;;;36.60;;
11255;SDS011;5685;52.384;13.420;2023-03-01T12:29:33;68.80;;;36.67;;
11255;SDS011;5685;52.384;13.420;2023-03-01T12:32:42;68.30;;;36.40;;
11255;SDS011;5685;52.384;13.420;2023-03-01T12:39:26;68.73;;;36.67;;
11255;SDS011;5685;52.384;13.420;2023-03-01T12:42:38;69.03;;;36.77;;
11255;SDS011;5685;52.384;13.420;2023-03-01T12:45:54;68.50;;;36.50;;
11255;SDS011;5685;52.384;13.420;2023-03-01T12:49:08;68.83;;;36.70;;
11255;SDS011;5685;52.384;13.420;2023-03-01T12:52:12;68.87;;;36.67;;
11255;SDS011;5685;52.384;13.420;2023-03-01T12:55:25;68.70;;;36.63;;
11255;SDS011;5685;52.384;13.420;2023-03-01T12:58:31;68.50;;;36.47;;
11255;SDS011;5685;52.384;13.420;2023-03-01T13:01:36;68.43;;;36.50;;
11255;SDS011;5685;52.384;13.420;2023-03-01T13:04:57;68.57;;;36.60;;
11255;SDS011;5685;52.384;13.420;2023-03-01T13:08:08;68.87;;;36.83;;
11255;SDS011;5685;52.384;13.420;2023-03-01T13:11:16;68.73;;;36.70;;
11255;SDS011;5685;52.384;13.420;2023-03-01T13:14:35;68.20;;;36.40;;
11255;SDS011;5685;52.384;13.420;2023-03-01T13:17:47;68.37;;;36.50;;
11255;SDS011;5685;52.384;13.420;2023-03-01T13:20:52;68.20;;;36.40;;
11255;SDS011;5685;52.384;13.420;2023-03-01T13:23:57;68.43;;;36.70;;
11255;SDS011;5685;52.384;13.420;2023-03-01T13:27:10;68.87;;;36.97;;
11255;SDS011;5685;52.384;13.420;2023-03-01T13:30:38;68.67;;;36.73;;
11255;SDS011;5685;52.384;13.420;2023-03-01T13:33:44;68.57;;;36.70;;
11255;SDS011;5685;52.384;13.420;2023-03-01T13:36:49;68.23;;;36.53;;
11255;SDS011;5685;52.384;13.420;2023-03-01T13:39:54;68.40;;;36.70;;
11255;SDS011;5685;52.384;13.420;2023-03-01T13:42:59;68.93;;;37.10;;
11255;SDS011;5685;52.384;13.420;2023-03-01T13:46:29;68.60;;;36.80;;
11255;SDS011;5685;52.384;13.420;2023-03-01T13:49:33;68.03;;;36.60;;
11255;SDS011;5685;52.384;13.420;2023-03-01T13:52:43;68.07;;;36.50;;
11255;SDS011;5685;52.384;13.420;2023-03-01T13:55:47;68.27;;;36.80;;
11255;SDS011;5685;52.384;13.420;2023-03-01T13:58:53;68.43;;;36.73;;
11255;SDS011;5685;52.384;13.420;2023-03-01T14:02:01;68.07;;;36.70;;
11255;SDS011;5685;52.384;13.420;2023-03-01T14:05:05;68.33;;;36.93;;
11255;SDS011;5685;52.384;13.420;2023-03-01T14:08:19;68.10;;;36.70;;
11255;SDS011;5685;52.384;13.420;2023-03-01T14:15:09;68.07;;;36.80;;
11255;SDS011;5685;52.384;13.420;2023-03-01T14:18:18;68.27;;;36.90;;
11255;SDS011;5685;52.384;13.420;2023-03-01T14:21:23;67.77;;;36.80;;
11255;SDS011;5685;52.384;13.420;2023-03-01T14:24:26;68.23;;;37.00;;
11255;SDS011;5685;52.384;13.420;2023-03-01T14:27:30;67.57;;;36.67;;
11255;SDS011;5685;52.384;13.420;2023-03-01T14:30:41;67.57;;;36.70;;
11255;SDS011;5685;52.384;13.420;2023-03-01T14:33:45;67.60;;;36.80;;
11255;SDS011;5685;52.384;13.420;2023-03-01T14:36:56;67.80;;;37.00;;
11255;SDS011;5685;52.384;13.420;2023-03-01T14:40:05;67.67;;;36.90;;
11255;SDS011;5685;52.384;13.420;2023-03-01T14:43:21;68.13;;;37.13;;
11255;SDS011;5685;52.384;13.420;2023-03-01T14:46:28;67.53;;;36.90;;
11255;SDS011;5685;52.384;13.420;2023-03-01T14:49:33;67.77;;;36.90;;
11255;SDS011;5685;52.384;13.420;2023-03-01T14:52:37;67.33;;;36.77;;
11255;SDS011;5685;52.384;13.420;2023-03-01T14:55:42;67.97;;;37.17;;
11255;SDS011;5685;52.384;13.420;2023-03-01T14:58:50;67.97;;;37.20;;
11255;SDS011;5685;52.384;13.420;2023-03-01T15:01:56;67.60;;;36.90;;
11255;SDS011;5685;52.384;13.420;2023-03-01T15:05:00;67.13;;;36.80;;
11255;SDS011;5685;52.384;13.420;2023-03-01T15:08:05;68.10;;;37.13;;
11255;SDS011;5685;52.384;13.420;2023-03-01T15:11:16;67.60;;;37.00;;
11255;SDS011;5685;52.384;13.420;2023-03-01T15:14:36;67.90;;;37.10;;
11255;SDS011;5685;52.384;13.420;2023-03-01T15:17:43;67.63;;;37.00;;
11255;SDS011;5685;52.384;13.420;2023-03-01T15:20:46;67.13;;;36.90;;
11255;SDS011;5685;52.384;13.420;2023-03-01T15:23:50;67.73;;;37.07;;
11255;SDS011;5685;52.384;13.420;2023-03-01T15:26:55;67.70;;;37.00;;
11255;SDS011;5685;52.384;13.420;2023-03-01T15:30:02;67.87;;;37.10;;
11255;SDS011;5685;52.384;13.420;2023-03-01T15:36:41;67.67;;;37.03;;
11255;SDS011;5685;52.384;13.420;2023-03-01T15:39:52;67.13;;;36.90;;
11255;SDS011;5685;52.384;13.420;2023-03-01T15:42:56;67.20;;;36.97;;
11255;SDS011;5685;52.384;13.420;2023-03-01T15:45:59;67.30;;;36.87;;
11255;SDS011;5685;52.384;13.420;2023-03-01T15:49:04;67.30;;;36.90;;
11255;SDS011;5685;52.384;13.420;2023-03-01T15:52:22;67.20;;;36.90;;
11255;SDS011;5685;52.384;13.420;2023-03-01T15:55:29;67.50;;;37.00;;
11255;SDS011;5685;52.384;13.420;2023-03-01T15:58:33;67.23;;;36.87;;
11255;SDS011;5685;52.384;13.420;2023-03-01T16:01:36;67.67;;;37.10;;
11255;SDS011;5685;52.384;13.420;2023-03-01T16:04:40;67.40;;;37.03;;
11255;SDS011;5685;52.384;13.420;2023-03-01T16:07:42;67.20;;;37.00;;
11255;SDS011;5685;52.384;13.420;2023-03-01T16:10:45;67.63;;;37.10;;
11255;SDS011;5685;52.384;13.420;2023-03-01T16:13:49;67.90;;;37.30;;
11255;SDS011;5685;52.384;13.420;2023-03-01T16:16:52;67.47;;;37.10;;
11255;SDS011;5685;52.384;13.420;2023-03-01T16:19:56;67.70;;;37.10;;
11255;SDS011;5685;52.384;13.420;2023-03-01T16:22:59;67.53;;;37.07;;
11255;SDS011;5685;52.384;13.420;2023-03-01T16:26:03;67.70;;;37.23;;
11255;SDS011;5685;52.384;13.420;2023-03-01T16:29:06;67.77;;;37.17;;
11255;SDS011;5685;52.384;13.420;2023-03-01T16:32:08;67.73;;;37.30;;
11255;SDS011;5685;52.384;13.420;2023-03-01T16:35:13;67.70;;;37.20;;
11255;SDS011;5685;52.384;13.420;2023-03-01T16:38:17;68.10;;;37.40;;
11255;SDS011;5685;52.384;13.420;2023-03-01T16:41:20;67.97;;;37.30;;
11255;SDS011;5685;52.384;13.420;2023-03-01T16:44:24;67.87;;;37.30;;
11255;SDS011;5685;52.384;13.420;2023-03-01T16:47:26;67.23;;;37.00;;
11255;SDS011;5685;52.384;13.420;2023-03-01T16:50:31;67.43;;;37.00;;
11255;SDS011;5685;52.384;13.420;2023-03-01T16:53:34;67.67;;;37.20;;
11255;SDS011;5685;52.384;13.420;2023-03-01T16:56:38;67.30;;;37.00;;
11255;SDS011;5685;52.384;13.420;2023-03-01T16:59:40;67.77;;;37.30;;
11255;SDS011;5685;52.384;13.420;2023-03-01T17:02:43;67.50;;;37.10;;
11255;SDS011;5685;52.384;13.420;2023-03-01T17:05:47;67.37;;;37.07;;
11255;SDS011;5685;52.384;13.420;2023-03-01T17:08:50;67.77;;;37.20;;
11255;SDS011;5685;52.384;13.420;2023-03-01T17:11:52;67.53;;;37.00;;
11255;SDS011;5685;52.384;13.420;2023-03-01T17:14:55;67.77;;;37.30;;
11255;SDS011;5685;52.384;13.420;2023-03-01T17:17:58;67.83;;;37.20;;
11255;SDS011;5685;52.384;13.420;2023-03-01T17:21:02;67.43;;;37.00;;
11255;SDS011;5685;52.384;13.420;2023-03-01T17:24:06;67.63;;;37.03;;
11255;SDS011;5685;52.384;13.420;2023-03-01T17:27:09;67.53;;;37.13;;
11255;SDS011;5685;52.384;13.420;2023-03-01T17:30:12;67.30;;;37.00;;
11255;SDS011;5685;52.384;13.420;2023-03-01T17:33:16;67.80;;;37.20;;
11255;SDS011;5685;52.384;13.420;2023-03-01T17:36:21;67.40;;;37.03;;
11255;SDS011;5685;52.384;13.420;2023-03-01T17:39:25;67.37;;;37.10;;
11255;SDS011;5685;52.384;13.420;2023-03-01T17:42:35;67.57;;;37.20;;
11255;SDS011;5685;52.384;13.420;2023-03-01T17:45:37;67.60;;;37.30;;
11255;SDS011;5685;52.384;13.420;2023-03-01T17:48:43;67.77;;;37.40;;
11255;SDS011;5685;52.384;13.420;2023-03-01T17:51:47;67.27;;;37.03;;
11255;SDS011;5685;52.384;13.420;2023-03-01T17:54:50;67.47;;;37.10;;
11255;SDS011;5685;52.384;13.420;2023-03-01T17:57:52;67.63;;;37.27;;
11255;SDS011;5685;52.384;13.420;2023-03-01T18:00:55;67.80;;;37.30;;
11255;SDS011;5685;52.384;13.420;2023-03-01T18:04:07;67.73;;;37.30;;
11255;SDS011;5685;52.384;13.420;2023-03-01T18:07:11;67.67;;;37.20;;
11255;SDS011;5685;52.384;13.420;2023-03-01T18:10:13;67.60;;;37.20;;
11255;SDS011;5685;52.384;13.420;2023-03-01T18:13:16;67.70;;;37.20;;
11255;SDS011;5685;52.384;13.420;2023-03-01T18:16:20;67.67;;;37.30;;